sensor_id;sensor_type;location;lat;lon;timestamp;P1;durP1;ratioP1;P2;durP2;ratioP2
14470;SDS011;7321;50.802;4.336;2022-12-29T00:01:37;2.97;;;1.70;;
14470;SDS011;7321;50.802;4.336;2022-12-29T00:04:03;2.40;;;1.50;;
14470;SDS011;7321;50.802;4.336;2022-12-29T00:06:30;1.77;;;1.50;;
14470;SDS011;7321;50.802;4.336;2022-12-29T00:08:56;1.40;;;1.30;;
14470;SDS011;7321;50.802;4.336;2022-12-29T00:11:23;1.20;;;1.10;;
14470;SDS011;7321;50.802;4.336;2022-12-29T00:13:50;2.40;;;1.47;;
14470;SDS011;7321;50.802;4.336;2022-12-29T00:16:35;1.97;;;1.43;;
14470;SDS011;7321;50.802;4.336;2022-12-29T00:19:02;0.80;;;0.80;;
14470;SDS011;7321;50.802;4.336;2022-12-29T00:21:29;2.93;;;1.37;;
14470;SDS011;7321;50.802;4.336;2022-12-29T00:24:20;1.87;;;0.80;;
14470;SDS011;7321;50.802;4.336;2022-12-29T00:27:29;1.20;;;0.87;;
14470;SDS011;7321;50.802;4.336;2022-12-29T00:29:55;1.43;;;1.00;;
14470;SDS011;7321;50.802;4.336;2022-12-29T00:32:40;1.40;;;0.90;;
14470;SDS011;7321;50.802;4.336;2022-12-29T00:35:33;1.73;;;1.00;;
14470;SDS011;7321;50.802;4.336;2022-12-29T00:38:08;1.43;;;0.97;;
14470;SDS011;7321;50.802;4.336;2022-12-29T00:40:54;2.40;;;0.90;;
14470;SDS011;7321;50.802;4.336;2022-12-29T00:43:38;2.20;;;1.00;;
14470;SDS011;7321;50.802;4.336;2022-12-29T00:46:22;1.43;;;0.80;;
14470;SDS011;7321;50.802;4.336;2022-12-29T00:48:49;2.13;;;0.90;;
14470;SDS011;7321;50.802;4.336;2022-12-29T00:51:34;4.67;;;1.40;;
14470;SDS011;7321;50.802;4.336;2022-12-29T00:54:00;2.20;;;1.13;;
14470;SDS011;7321;50.802;4.336;2022-12-29T00:56:26;4.23;;;1.20;;
14470;SDS011;7321;50.802;4.336;2022-12-29T00:58:51;3.67;;;1.10;;
14470;SDS011;7321;50.802;4.336;2022-12-29T01:01:17;1.57;;;1.27;;
14470;SDS011;7321;50.802;4.336;2022-12-29T01:03:46;2.50;;;1.00;;
14470;SDS011;7321;50.802;4.336;2022-12-29T01:06:12;2.80;;;1.13;;
14470;SDS011;7321;50.802;4.336;2022-12-29T01:08:37;2.90;;;1.23;;
14470;SDS011;7321;50.802;4.336;2022-12-29T01:11:05;1.87;;;0.73;;
14470;SDS011;7321;50.802;4.336;2022-12-29T01:13:38;3.23;;;1.10;;
14470;SDS011;7321;50.802;4.336;2022-12-29T01:16:06;3.70;;;1.50;;
14470;SDS011;7321;50.802;4.336;2022-12-29T01:18:32;2.40;;;1.13;;
14470;SDS011;7321;50.802;4.336;2022-12-29T01:20:59;2.47;;;1.30;;
14470;SDS011;7321;50.802;4.336;2022-12-29T01:23:27;2.33;;;1.10;;
14470;SDS011;7321;50.802;4.336;2022-12-29T01:25:53;4.00;;;1.20;;
14470;SDS011;7321;50.802;4.336;2022-12-29T01:28:19;2.07;;;1.30;;
14470;SDS011;7321;50.802;4.336;2022-12-29T01:30:45;2.67;;;1.47;;
14470;SDS011;7321;50.802;4.336;2022-12-29T01:33:11;1.97;;;1.43;;
14470;SDS011;7321;50.802;4.336;2022-12-29T01:35:36;4.57;;;1.80;;
14470;SDS011;7321;50.802;4.336;2022-12-29T01:38:02;3.17;;;1.57;;
14470;SDS011;7321;50.802;4.336;2022-12-29T01:40:28;1.30;;;1.20;;
14470;SDS011;7321;50.802;4.336;2022-12-29T01:43:01;3.37;;;1.40;;
14470;SDS011;7321;50.802;4.336;2022-12-29T01:45:39;3.90;;;1.50;;
14470;SDS011;7321;50.802;4.336;2022-12-29T01:48:23;1.90;;;1.30;;
14470;SDS011;7321;50.802;4.336;2022-12-29T01:50:50;1.63;;;1.20;;
14470;SDS011;7321;50.802;4.336;2022-12-29T01:53:24;2.93;;;1.40;;
14470;SDS011;7321;50.802;4.336;2022-12-29T01:55:55;3.23;;;1.37;;
14470;SDS011;7321;50.802;4.336;2022-12-29T01:58:40;1.30;;;1.10;;
14470;SDS011;7321;50.802;4.336;2022-12-29T02:01:16;1.63;;;0.90;;
14470;SDS011;7321;50.802;4.336;2022-12-29T02:03:53;6.13;;;0.97;;
14470;SDS011;7321;50.802;4.336;2022-12-29T02:06:28;1.23;;;0.77;;
14470;SDS011;7321;50.802;4.336;2022-12-29T02:09:10;1.57;;;0.60;;
14470;SDS011;7321;50.802;4.336;2022-12-29T02:12:07;1.37;;;0.53;;
14470;SDS011;7321;50.802;4.336;2022-12-29T02:14:33;2.63;;;0.80;;
14470;SDS011;7321;50.802;4.336;2022-12-29T02:17:13;2.30;;;0.83;;
14470;SDS011;7321;50.802;4.336;2022-12-29T02:20:22;3.03;;;0.60;;
14470;SDS011;7321;50.802;4.336;2022-12-29T02:38:00;2.27;;;0.60;;
14470;SDS011;7321;50.802;4.336;2022-12-29T02:40:58;2.37;;;0.80;;
14470;SDS011;7321;50.802;4.336;2022-12-29T02:43:38;1.43;;;0.40;;
14470;SDS011;7321;50.802;4.336;2022-12-29T02:49:01;1.40;;;0.50;;
14470;SDS011;7321;50.802;4.336;2022-12-29T02:54:11;2.20;;;1.00;;
14470;SDS011;7321;50.802;4.336;2022-12-29T02:56:56;0.83;;;0.47;;
14470;SDS011;7321;50.802;4.336;2022-12-29T02:59:22;2.17;;;0.67;;
14470;SDS011;7321;50.802;4.336;2022-12-29T03:01:58;1.97;;;0.80;;
14470;SDS011;7321;50.802;4.336;2022-12-29T03:10:41;2.37;;;0.80;;
14470;SDS011;7321;50.802;4.336;2022-12-29T03:13:23;1.93;;;0.67;;
14470;SDS011;7321;50.802;4.336;2022-12-29T03:21:55;2.13;;;0.60;;
14470;SDS011;7321;50.802;4.336;2022-12-29T03:24:45;1.57;;;0.70;;
14470;SDS011;7321;50.802;4.336;2022-12-29T03:27:17;1.07;;;0.50;;
14470;SDS011;7321;50.802;4.336;2022-12-29T03:29:55;2.07;;;0.83;;
14470;SDS011;7321;50.802;4.336;2022-12-29T03:32:36;1.93;;;0.70;;
14470;SDS011;7321;50.802;4.336;2022-12-29T03:35:24;2.97;;;0.83;;
14470;SDS011;7321;50.802;4.336;2022-12-29T03:40:45;2.03;;;1.00;;
14470;SDS011;7321;50.802;4.336;2022-12-29T03:43:15;4.57;;;1.73;;
14470;SDS011;7321;50.802;4.336;2022-12-29T03:45:45;2.30;;;0.93;;
14470;SDS011;7321;50.802;4.336;2022-12-29T03:48:13;2.57;;;1.20;;
14470;SDS011;7321;50.802;4.336;2022-12-29T03:50:39;2.07;;;1.20;;
14470;SDS011;7321;50.802;4.336;2022-12-29T03:53:05;4.23;;;1.07;;
14470;SDS011;7321;50.802;4.336;2022-12-29T03:55:31;4.70;;;1.60;;
14470;SDS011;7321;50.802;4.336;2022-12-29T03:57:57;3.40;;;1.20;;
14470;SDS011;7321;50.802;4.336;2022-12-29T04:00:26;3.50;;;0.97;;
14470;SDS011;7321;50.802;4.336;2022-12-29T04:02:53;4.23;;;1.37;;
14470;SDS011;7321;50.802;4.336;2022-12-29T04:05:20;2.50;;;0.97;;
14470;SDS011;7321;50.802;4.336;2022-12-29T04:07:46;2.87;;;1.00;;
14470;SDS011;7321;50.802;4.336;2022-12-29T04:10:11;4.27;;;1.17;;
14470;SDS011;7321;50.802;4.336;2022-12-29T04:12:38;3.47;;;1.10;;
14470;SDS011;7321;50.802;4.336;2022-12-29T04:15:03;5.13;;;1.00;;
14470;SDS011;7321;50.802;4.336;2022-12-29T04:17:30;3.40;;;1.20;;
14470;SDS011;7321;50.802;4.336;2022-12-29T04:19:56;4.50;;;1.17;;
14470;SDS011;7321;50.802;4.336;2022-12-29T04:22:41;3.83;;;1.40;;
14470;SDS011;7321;50.802;4.336;2022-12-29T04:25:07;3.20;;;1.10;;
14470;SDS011;7321;50.802;4.336;2022-12-29T04:27:36;5.00;;;1.07;;
14470;SDS011;7321;50.802;4.336;2022-12-29T04:30:05;5.03;;;1.30;;
14470;SDS011;7321;50.802;4.336;2022-12-29T04:32:31;4.17;;;1.67;;
14470;SDS011;7321;50.802;4.336;2022-12-29T04:35:06;4.83;;;1.00;;
14470;SDS011;7321;50.802;4.336;2022-12-29T04:37:41;2.40;;;0.90;;
14470;SDS011;7321;50.802;4.336;2022-12-29T04:40:10;3.70;;;1.03;;
14470;SDS011;7321;50.802;4.336;2022-12-29T04:42:39;2.47;;;1.10;;
14470;SDS011;7321;50.802;4.336;2022-12-29T04:45:05;2.83;;;1.10;;
14470;SDS011;7321;50.802;4.336;2022-12-29T04:47:31;4.63;;;1.60;;
14470;SDS011;7321;50.802;4.336;2022-12-29T04:49:57;5.03;;;1.40;;
14470;SDS011;7321;50.802;4.336;2022-12-29T04:52:23;1.97;;;1.10;;
14470;SDS011;7321;50.802;4.336;2022-12-29T04:54:49;1.53;;;1.10;;
14470;SDS011;7321;50.802;4.336;2022-12-29T04:57:17;3.63;;;1.27;;
14470;SDS011;7321;50.802;4.336;2022-12-29T04:59:45;4.17;;;1.40;;
14470;SDS011;7321;50.802;4.336;2022-12-29T05:02:11;4.87;;;1.17;;
14470;SDS011;7321;50.802;4.336;2022-12-29T05:04:37;3.37;;;1.17;;
14470;SDS011;7321;50.802;4.336;2022-12-29T05:07:02;5.57;;;1.50;;
14470;SDS011;7321;50.802;4.336;2022-12-29T05:09:28;2.77;;;1.33;;
14470;SDS011;7321;50.802;4.336;2022-12-29T05:11:55;3.97;;;1.13;;
14470;SDS011;7321;50.802;4.336;2022-12-29T05:14:21;4.60;;;1.17;;
14470;SDS011;7321;50.802;4.336;2022-12-29T05:16:47;3.67;;;1.20;;
14470;SDS011;7321;50.802;4.336;2022-12-29T05:19:15;2.87;;;1.20;;
14470;SDS011;7321;50.802;4.336;2022-12-29T05:21:41;3.27;;;1.27;;
14470;SDS011;7321;50.802;4.336;2022-12-29T05:24:11;5.10;;;1.63;;
14470;SDS011;7321;50.802;4.336;2022-12-29T05:26:36;3.97;;;1.57;;
14470;SDS011;7321;50.802;4.336;2022-12-29T05:29:02;5.77;;;1.60;;
14470;SDS011;7321;50.802;4.336;2022-12-29T05:31:29;3.47;;;1.60;;
14470;SDS011;7321;50.802;4.336;2022-12-29T05:33:55;8.20;;;1.17;;
14470;SDS011;7321;50.802;4.336;2022-12-29T05:36:26;6.50;;;1.37;;
14470;SDS011;7321;50.802;4.336;2022-12-29T05:42:01;5.47;;;1.40;;
14470;SDS011;7321;50.802;4.336;2022-12-29T05:44:43;4.27;;;1.37;;
14470;SDS011;7321;50.802;4.336;2022-12-29T05:47:15;6.07;;;1.73;;
14470;SDS011;7321;50.802;4.336;2022-12-29T05:49:41;6.27;;;1.50;;
14470;SDS011;7321;50.802;4.336;2022-12-29T05:52:10;4.93;;;1.40;;
14470;SDS011;7321;50.802;4.336;2022-12-29T05:54:38;5.57;;;1.60;;
14470;SDS011;7321;50.802;4.336;2022-12-29T05:57:04;4.97;;;1.30;;
14470;SDS011;7321;50.802;4.336;2022-12-29T05:59:33;3.83;;;1.10;;
14470;SDS011;7321;50.802;4.336;2022-12-29T06:02:20;5.27;;;1.20;;
14470;SDS011;7321;50.802;4.336;2022-12-29T06:04:52;3.87;;;1.27;;
14470;SDS011;7321;50.802;4.336;2022-12-29T06:07:17;4.07;;;1.50;;
14470;SDS011;7321;50.802;4.336;2022-12-29T06:09:46;7.17;;;2.00;;
14470;SDS011;7321;50.802;4.336;2022-12-29T06:12:12;6.50;;;1.77;;
14470;SDS011;7321;50.802;4.336;2022-12-29T06:14:43;6.90;;;1.80;;
14470;SDS011;7321;50.802;4.336;2022-12-29T06:17:09;7.43;;;2.40;;
14470;SDS011;7321;50.802;4.336;2022-12-29T06:19:35;4.47;;;1.63;;
14470;SDS011;7321;50.802;4.336;2022-12-29T06:22:01;5.97;;;1.40;;
14470;SDS011;7321;50.802;4.336;2022-12-29T06:24:40;4.67;;;1.67;;
14470;SDS011;7321;50.802;4.336;2022-12-29T06:27:09;7.77;;;2.23;;
14470;SDS011;7321;50.802;4.336;2022-12-29T06:29:44;6.23;;;1.80;;
14470;SDS011;7321;50.802;4.336;2022-12-29T06:32:10;4.90;;;1.33;;
14470;SDS011;7321;50.802;4.336;2022-12-29T06:34:38;7.20;;;1.93;;
14470;SDS011;7321;50.802;4.336;2022-12-29T06:37:04;7.83;;;1.60;;
14470;SDS011;7321;50.802;4.336;2022-12-29T06:39:30;5.70;;;1.83;;
14470;SDS011;7321;50.802;4.336;2022-12-29T06:41:56;4.73;;;1.27;;
14470;SDS011;7321;50.802;4.336;2022-12-29T06:44:25;4.40;;;1.40;;
14470;SDS011;7321;50.802;4.336;2022-12-29T06:46:51;5.83;;;1.50;;
14470;SDS011;7321;50.802;4.336;2022-12-29T06:49:17;8.87;;;1.97;;
14470;SDS011;7321;50.802;4.336;2022-12-29T06:51:52;3.90;;;1.60;;
14470;SDS011;7321;50.802;4.336;2022-12-29T06:54:29;4.87;;;1.60;;
14470;SDS011;7321;50.802;4.336;2022-12-29T06:57:04;8.70;;;2.47;;
14470;SDS011;7321;50.802;4.336;2022-12-29T06:59:33;6.50;;;1.83;;
14470;SDS011;7321;50.802;4.336;2022-12-29T07:02:05;6.20;;;1.60;;
14470;SDS011;7321;50.802;4.336;2022-12-29T07:04:45;4.33;;;1.33;;
14470;SDS011;7321;50.802;4.336;2022-12-29T07:07:23;8.77;;;1.53;;
14470;SDS011;7321;50.802;4.336;2022-12-29T07:09:52;7.90;;;1.90;;
14470;SDS011;7321;50.802;4.336;2022-12-29T07:12:18;8.57;;;1.80;;
14470;SDS011;7321;50.802;4.336;2022-12-29T07:14:50;6.40;;;1.73;;
14470;SDS011;7321;50.802;4.336;2022-12-29T07:17:36;6.87;;;1.90;;
14470;SDS011;7321;50.802;4.336;2022-12-29T07:20:10;6.80;;;1.70;;
14470;SDS011;7321;50.802;4.336;2022-12-29T07:22:38;7.23;;;1.30;;
14470;SDS011;7321;50.802;4.336;2022-12-29T07:25:30;14.17;;;5.40;;
14470;SDS011;7321;50.802;4.336;2022-12-29T07:27:56;6.87;;;2.07;;
14470;SDS011;7321;50.802;4.336;2022-12-29T07:30:22;5.13;;;1.37;;
14470;SDS011;7321;50.802;4.336;2022-12-29T07:32:48;6.53;;;2.27;;
14470;SDS011;7321;50.802;4.336;2022-12-29T07:35:14;7.50;;;1.93;;
14470;SDS011;7321;50.802;4.336;2022-12-29T07:37:40;6.30;;;2.13;;
14470;SDS011;7321;50.802;4.336;2022-12-29T07:40:06;7.60;;;1.93;;
14470;SDS011;7321;50.802;4.336;2022-12-29T07:42:32;11.57;;;2.27;;
14470;SDS011;7321;50.802;4.336;2022-12-29T07:45:04;9.87;;;2.70;;
14470;SDS011;7321;50.802;4.336;2022-12-29T07:47:36;6.67;;;1.90;;
14470;SDS011;7321;50.802;4.336;2022-12-29T07:50:14;7.07;;;2.10;;
14470;SDS011;7321;50.802;4.336;2022-12-29T07:52:40;5.40;;;2.20;;
14470;SDS011;7321;50.802;4.336;2022-12-29T07:55:15;7.13;;;2.07;;
14470;SDS011;7321;50.802;4.336;2022-12-29T07:57:44;12.67;;;3.37;;
14470;SDS011;7321;50.802;4.336;2022-12-29T08:00:25;7.87;;;2.67;;
14470;SDS011;7321;50.802;4.336;2022-12-29T08:02:59;7.23;;;1.73;;
14470;SDS011;7321;50.802;4.336;2022-12-29T08:05:25;7.63;;;2.40;;
14470;SDS011;7321;50.802;4.336;2022-12-29T08:07:54;4.13;;;1.63;;
14470;SDS011;7321;50.802;4.336;2022-12-29T08:10:43;7.43;;;1.93;;
14470;SDS011;7321;50.802;4.336;2022-12-29T08:13:18;7.50;;;2.17;;
14470;SDS011;7321;50.802;4.336;2022-12-29T08:15:44;7.33;;;2.03;;
14470;SDS011;7321;50.802;4.336;2022-12-29T08:18:31;6.40;;;1.67;;
14470;SDS011;7321;50.802;4.336;2022-12-29T08:21:03;6.77;;;2.27;;
14470;SDS011;7321;50.802;4.336;2022-12-29T08:23:31;6.43;;;2.00;;
14470;SDS011;7321;50.802;4.336;2022-12-29T08:26:00;7.73;;;2.10;;
14470;SDS011;7321;50.802;4.336;2022-12-29T08:28:28;8.63;;;2.23;;
14470;SDS011;7321;50.802;4.336;2022-12-29T08:30:56;7.80;;;2.00;;
14470;SDS011;7321;50.802;4.336;2022-12-29T08:33:24;6.63;;;1.67;;
14470;SDS011;7321;50.802;4.336;2022-12-29T08:38:36;9.47;;;2.53;;
14470;SDS011;7321;50.802;4.336;2022-12-29T08:41:05;4.97;;;1.67;;
14470;SDS011;7321;50.802;4.336;2022-12-29T08:43:33;9.10;;;2.53;;
14470;SDS011;7321;50.802;4.336;2022-12-29T08:46:00;6.97;;;2.13;;
14470;SDS011;7321;50.802;4.336;2022-12-29T08:48:26;4.43;;;1.90;;
14470;SDS011;7321;50.802;4.336;2022-12-29T08:50:58;7.67;;;2.10;;
14470;SDS011;7321;50.802;4.336;2022-12-29T08:53:26;9.20;;;2.00;;
14470;SDS011;7321;50.802;4.336;2022-12-29T08:55:57;5.43;;;2.37;;
14470;SDS011;7321;50.802;4.336;2022-12-29T08:58:24;7.73;;;2.17;;
14470;SDS011;7321;50.802;4.336;2022-12-29T09:00:53;8.57;;;2.10;;
14470;SDS011;7321;50.802;4.336;2022-12-29T09:03:20;7.13;;;1.90;;
14470;SDS011;7321;50.802;4.336;2022-12-29T09:05:47;5.87;;;2.03;;
14470;SDS011;7321;50.802;4.336;2022-12-29T09:08:14;7.33;;;2.10;;
14470;SDS011;7321;50.802;4.336;2022-12-29T09:10:40;7.97;;;2.90;;
14470;SDS011;7321;50.802;4.336;2022-12-29T09:13:06;11.53;;;2.33;;
14470;SDS011;7321;50.802;4.336;2022-12-29T09:15:32;7.23;;;2.17;;
14470;SDS011;7321;50.802;4.336;2022-12-29T09:17:57;8.17;;;2.33;;
14470;SDS011;7321;50.802;4.336;2022-12-29T09:20:23;9.50;;;2.57;;
14470;SDS011;7321;50.802;4.336;2022-12-29T09:22:49;8.20;;;2.30;;
14470;SDS011;7321;50.802;4.336;2022-12-29T09:25:15;7.87;;;2.43;;
14470;SDS011;7321;50.802;4.336;2022-12-29T09:27:41;12.53;;;3.00;;
14470;SDS011;7321;50.802;4.336;2022-12-29T09:30:09;5.60;;;1.70;;
14470;SDS011;7321;50.802;4.336;2022-12-29T09:32:37;10.10;;;2.17;;
14470;SDS011;7321;50.802;4.336;2022-12-29T09:35:03;8.27;;;2.57;;
14470;SDS011;7321;50.802;4.336;2022-12-29T09:37:29;10.37;;;2.80;;
14470;SDS011;7321;50.802;4.336;2022-12-29T09:39:55;9.80;;;3.07;;
14470;SDS011;7321;50.802;4.336;2022-12-29T09:42:30;11.17;;;2.80;;
14470;SDS011;7321;50.802;4.336;2022-12-29T09:48:24;9.50;;;2.40;;
14470;SDS011;7321;50.802;4.336;2022-12-29T09:51:07;10.40;;;2.60;;
14470;SDS011;7321;50.802;4.336;2022-12-29T09:53:41;8.63;;;2.17;;
14470;SDS011;7321;50.802;4.336;2022-12-29T09:56:18;9.03;;;2.33;;
14470;SDS011;7321;50.802;4.336;2022-12-29T10:01:31;7.27;;;2.23;;
14470;SDS011;7321;50.802;4.336;2022-12-29T10:04:05;7.70;;;2.10;;
14470;SDS011;7321;50.802;4.336;2022-12-29T10:06:41;7.80;;;2.37;;
14470;SDS011;7321;50.802;4.336;2022-12-29T10:09:13;10.73;;;2.77;;
14470;SDS011;7321;50.802;4.336;2022-12-29T10:17:47;11.30;;;2.50;;
14470;SDS011;7321;50.802;4.336;2022-12-29T10:23:12;10.53;;;2.50;;
14470;SDS011;7321;50.802;4.336;2022-12-29T10:25:48;8.33;;;2.07;;
14470;SDS011;7321;50.802;4.336;2022-12-29T10:30:51;8.90;;;2.30;;
14470;SDS011;7321;50.802;4.336;2022-12-29T10:33:19;8.60;;;2.47;;
14470;SDS011;7321;50.802;4.336;2022-12-29T10:35:49;9.13;;;2.33;;
14470;SDS011;7321;50.802;4.336;2022-12-29T10:43:46;15.03;;;2.30;;
14470;SDS011;7321;50.802;4.336;2022-12-29T10:46:16;7.00;;;2.67;;
14470;SDS011;7321;50.802;4.336;2022-12-29T10:48:46;8.07;;;2.20;;
14470;SDS011;7321;50.802;4.336;2022-12-29T10:51:18;9.70;;;2.30;;
14470;SDS011;7321;50.802;4.336;2022-12-29T10:53:46;8.57;;;2.23;;
14470;SDS011;7321;50.802;4.336;2022-12-29T10:59:07;6.57;;;2.00;;
14470;SDS011;7321;50.802;4.336;2022-12-29T11:01:46;12.23;;;2.50;;
14470;SDS011;7321;50.802;4.336;2022-12-29T11:07:06;11.33;;;2.57;;
14470;SDS011;7321;50.802;4.336;2022-12-29T11:09:34;10.90;;;2.57;;
14470;SDS011;7321;50.802;4.336;2022-12-29T11:14:46;7.17;;;2.50;;
14470;SDS011;7321;50.802;4.336;2022-12-29T11:17:16;11.83;;;2.63;;
14470;SDS011;7321;50.802;4.336;2022-12-29T11:19:43;9.43;;;2.67;;
14470;SDS011;7321;50.802;4.336;2022-12-29T11:22:22;7.67;;;2.50;;
14470;SDS011;7321;50.802;4.336;2022-12-29T11:24:51;9.03;;;2.70;;
14470;SDS011;7321;50.802;4.336;2022-12-29T11:27:19;8.20;;;3.13;;
14470;SDS011;7321;50.802;4.336;2022-12-29T11:29:48;10.50;;;2.60;;
14470;SDS011;7321;50.802;4.336;2022-12-29T11:32:22;11.00;;;2.67;;
14470;SDS011;7321;50.802;4.336;2022-12-29T11:34:52;10.73;;;3.50;;
14470;SDS011;7321;50.802;4.336;2022-12-29T11:37:19;8.17;;;2.57;;
14470;SDS011;7321;50.802;4.336;2022-12-29T11:42:46;7.50;;;2.50;;
14470;SDS011;7321;50.802;4.336;2022-12-29T11:45:16;10.10;;;3.03;;
14470;SDS011;7321;50.802;4.336;2022-12-29T11:47:44;10.97;;;2.87;;
14470;SDS011;7321;50.802;4.336;2022-12-29T11:50:19;9.47;;;2.53;;
14470;SDS011;7321;50.802;4.336;2022-12-29T11:53:01;9.33;;;3.07;;
14470;SDS011;7321;50.802;4.336;2022-12-29T11:55:31;10.53;;;2.63;;
14470;SDS011;7321;50.802;4.336;2022-12-29T11:57:59;9.80;;;2.80;;
14470;SDS011;7321;50.802;4.336;2022-12-29T12:00:27;8.30;;;2.97;;
14470;SDS011;7321;50.802;4.336;2022-12-29T12:02:57;9.40;;;2.80;;
14470;SDS011;7321;50.802;4.336;2022-12-29T12:05:47;9.60;;;2.67;;
14470;SDS011;7321;50.802;4.336;2022-12-29T12:11:23;9.53;;;2.90;;
14470;SDS011;7321;50.802;4.336;2022-12-29T12:13:59;10.73;;;2.90;;
14470;SDS011;7321;50.802;4.336;2022-12-29T12:16:39;12.40;;;2.60;;
14470;SDS011;7321;50.802;4.336;2022-12-29T12:30:43;6.63;;;2.30;;
14470;SDS011;7321;50.802;4.336;2022-12-29T12:33:24;7.20;;;2.60;;
14470;SDS011;7321;50.802;4.336;2022-12-29T12:42:05;6.80;;;2.17;;
14470;SDS011;7321;50.802;4.336;2022-12-29T13:01:21;12.13;;;2.37;;
14470;SDS011;7321;50.802;4.336;2022-12-29T13:07:03;8.30;;;2.40;;
14470;SDS011;7321;50.802;4.336;2022-12-29T13:18:51;8.77;;;2.30;;
14470;SDS011;7321;50.802;4.336;2022-12-29T13:26:24;10.80;;;2.17;;
14470;SDS011;7321;50.802;4.336;2022-12-29T13:32:40;8.20;;;2.47;;
14470;SDS011;7321;50.802;4.336;2022-12-29T13:35:38;10.93;;;3.30;;
14470;SDS011;7321;50.802;4.336;2022-12-29T13:38:38;6.67;;;2.40;;
14470;SDS011;7321;50.802;4.336;2022-12-29T13:41:09;9.00;;;2.63;;
14470;SDS011;7321;50.802;4.336;2022-12-29T13:43:42;9.70;;;2.43;;
14470;SDS011;7321;50.802;4.336;2022-12-29T13:46:18;8.70;;;2.40;;
14470;SDS011;7321;50.802;4.336;2022-12-29T13:48:51;8.43;;;2.63;;
14470;SDS011;7321;50.802;4.336;2022-12-29T13:51:27;7.77;;;2.47;;
14470;SDS011;7321;50.802;4.336;2022-12-29T14:02:26;9.70;;;3.10;;
14470;SDS011;7321;50.802;4.336;2022-12-29T14:05:05;11.17;;;2.80;;
14470;SDS011;7321;50.802;4.336;2022-12-29T14:07:58;11.70;;;4.10;;
14470;SDS011;7321;50.802;4.336;2022-12-29T14:15:31;9.13;;;3.03;;
14470;SDS011;7321;50.802;4.336;2022-12-29T14:18:03;10.47;;;3.07;;
14470;SDS011;7321;50.802;4.336;2022-12-29T14:20:30;11.07;;;3.63;;
14470;SDS011;7321;50.802;4.336;2022-12-29T14:23:01;9.63;;;2.67;;
14470;SDS011;7321;50.802;4.336;2022-12-29T14:28:31;9.90;;;2.67;;
14470;SDS011;7321;50.802;4.336;2022-12-29T14:31:00;9.00;;;2.47;;
14470;SDS011;7321;50.802;4.336;2022-12-29T14:33:29;9.80;;;2.90;;
14470;SDS011;7321;50.802;4.336;2022-12-29T14:35:56;8.53;;;2.83;;
14470;SDS011;7321;50.802;4.336;2022-12-29T14:38:45;9.47;;;2.70;;
14470;SDS011;7321;50.802;4.336;2022-12-29T14:41:30;7.97;;;2.50;;
14470;SDS011;7321;50.802;4.336;2022-12-29T14:49:28;7.67;;;2.30;;
14470;SDS011;7321;50.802;4.336;2022-12-29T14:52:23;12.40;;;2.87;;
14470;SDS011;7321;50.802;4.336;2022-12-29T14:54:51;9.80;;;2.73;;
14470;SDS011;7321;50.802;4.336;2022-12-29T15:00:14;13.20;;;3.03;;
14470;SDS011;7321;50.802;4.336;2022-12-29T15:02:49;8.43;;;2.50;;
14470;SDS011;7321;50.802;4.336;2022-12-29T15:08:24;6.07;;;1.77;;
14470;SDS011;7321;50.802;4.336;2022-12-29T15:10:53;4.40;;;1.63;;
14470;SDS011;7321;50.802;4.336;2022-12-29T15:13:36;5.23;;;2.10;;
14470;SDS011;7321;50.802;4.336;2022-12-29T15:16:04;9.00;;;2.60;;
14470;SDS011;7321;50.802;4.336;2022-12-29T15:18:47;7.80;;;3.00;;
14470;SDS011;7321;50.802;4.336;2022-12-29T15:21:37;9.63;;;3.33;;
14470;SDS011;7321;50.802;4.336;2022-12-29T15:24:10;8.00;;;3.47;;
14470;SDS011;7321;50.802;4.336;2022-12-29T15:29:40;27.73;;;19.67;;
14470;SDS011;7321;50.802;4.336;2022-12-29T15:32:16;10.40;;;6.03;;
14470;SDS011;7321;50.802;4.336;2022-12-29T15:34:54;6.33;;;2.90;;
14470;SDS011;7321;50.802;4.336;2022-12-29T15:37:42;10.57;;;5.83;;
14470;SDS011;7321;50.802;4.336;2022-12-29T15:46:50;6.73;;;2.60;;
14470;SDS011;7321;50.802;4.336;2022-12-29T15:49:58;5.93;;;3.10;;
14470;SDS011;7321;50.802;4.336;2022-12-29T16:03:33;7.33;;;3.07;;
14470;SDS011;7321;50.802;4.336;2022-12-29T16:07:01;16.17;;;11.10;;
14470;SDS011;7321;50.802;4.336;2022-12-29T16:09:54;11.17;;;5.23;;
14470;SDS011;7321;50.802;4.336;2022-12-29T16:12:46;12.10;;;4.10;;
14470;SDS011;7321;50.802;4.336;2022-12-29T16:15:31;13.17;;;6.60;;
14470;SDS011;7321;50.802;4.336;2022-12-29T16:18:04;11.53;;;6.27;;
14470;SDS011;7321;50.802;4.336;2022-12-29T16:20:40;20.80;;;11.87;;
14470;SDS011;7321;50.802;4.336;2022-12-29T16:31:01;16.27;;;6.00;;
14470;SDS011;7321;50.802;4.336;2022-12-29T16:33:55;15.37;;;6.10;;
14470;SDS011;7321;50.802;4.336;2022-12-29T16:44:10;13.53;;;4.80;;
14470;SDS011;7321;50.802;4.336;2022-12-29T16:54:27;12.20;;;4.77;;
14470;SDS011;7321;50.802;4.336;2022-12-29T16:57:22;14.43;;;4.90;;
14470;SDS011;7321;50.802;4.336;2022-12-29T16:59:55;14.33;;;5.00;;
14470;SDS011;7321;50.802;4.336;2022-12-29T17:02:27;10.53;;;3.37;;
14470;SDS011;7321;50.802;4.336;2022-12-29T17:04:55;11.97;;;4.10;;
14470;SDS011;7321;50.802;4.336;2022-12-29T17:07:27;15.10;;;3.87;;
14470;SDS011;7321;50.802;4.336;2022-12-29T17:09:53;9.67;;;3.50;;
14470;SDS011;7321;50.802;4.336;2022-12-29T17:12:29;15.23;;;4.63;;
14470;SDS011;7321;50.802;4.336;2022-12-29T17:15:01;17.50;;;4.77;;
14470;SDS011;7321;50.802;4.336;2022-12-29T17:17:49;13.10;;;4.47;;
14470;SDS011;7321;50.802;4.336;2022-12-29T17:20:51;13.80;;;4.40;;
14470;SDS011;7321;50.802;4.336;2022-12-29T17:23:18;11.87;;;4.13;;
14470;SDS011;7321;50.802;4.336;2022-12-29T17:26:20;9.70;;;4.00;;
14470;SDS011;7321;50.802;4.336;2022-12-29T17:29:03;12.13;;;4.23;;
14470;SDS011;7321;50.802;4.336;2022-12-29T17:31:29;11.70;;;3.27;;
14470;SDS011;7321;50.802;4.336;2022-12-29T17:33:57;16.53;;;6.27;;
14470;SDS011;7321;50.802;4.336;2022-12-29T17:36:44;14.57;;;4.60;;
14470;SDS011;7321;50.802;4.336;2022-12-29T17:39:53;13.60;;;4.67;;
14470;SDS011;7321;50.802;4.336;2022-12-29T17:45:59;10.03;;;3.60;;
14470;SDS011;7321;50.802;4.336;2022-12-29T17:48:57;9.97;;;3.30;;
14470;SDS011;7321;50.802;4.336;2022-12-29T17:51:38;8.40;;;3.40;;
14470;SDS011;7321;50.802;4.336;2022-12-29T17:54:07;7.87;;;3.30;;
14470;SDS011;7321;50.802;4.336;2022-12-29T17:57:25;10.20;;;6.30;;
14470;SDS011;7321;50.802;4.336;2022-12-29T17:59:54;7.27;;;2.73;;
14470;SDS011;7321;50.802;4.336;2022-12-29T18:02:51;12.80;;;4.83;;
14470;SDS011;7321;50.802;4.336;2022-12-29T18:05:49;12.17;;;3.67;;
14470;SDS011;7321;50.802;4.336;2022-12-29T18:08:15;12.17;;;4.10;;
14470;SDS011;7321;50.802;4.336;2022-12-29T18:10:55;9.87;;;3.77;;
14470;SDS011;7321;50.802;4.336;2022-12-29T18:13:31;8.90;;;2.90;;
14470;SDS011;7321;50.802;4.336;2022-12-29T18:16:00;12.97;;;3.63;;
14470;SDS011;7321;50.802;4.336;2022-12-29T18:18:35;11.73;;;3.90;;
14470;SDS011;7321;50.802;4.336;2022-12-29T18:21:00;12.37;;;4.00;;
14470;SDS011;7321;50.802;4.336;2022-12-29T18:23:27;12.20;;;3.90;;
14470;SDS011;7321;50.802;4.336;2022-12-29T18:26:02;9.60;;;3.53;;
14470;SDS011;7321;50.802;4.336;2022-12-29T18:28:31;11.53;;;4.67;;
14470;SDS011;7321;50.802;4.336;2022-12-29T18:30:58;17.50;;;4.03;;
14470;SDS011;7321;50.802;4.336;2022-12-29T18:33:25;9.50;;;3.67;;
14470;SDS011;7321;50.802;4.336;2022-12-29T18:36:03;8.47;;;4.07;;
14470;SDS011;7321;50.802;4.336;2022-12-29T18:38:30;12.93;;;3.50;;
14470;SDS011;7321;50.802;4.336;2022-12-29T18:41:15;12.60;;;4.27;;
14470;SDS011;7321;50.802;4.336;2022-12-29T18:43:42;12.80;;;3.23;;
14470;SDS011;7321;50.802;4.336;2022-12-29T18:46:08;14.07;;;4.27;;
14470;SDS011;7321;50.802;4.336;2022-12-29T18:48:40;12.47;;;3.33;;
14470;SDS011;7321;50.802;4.336;2022-12-29T18:51:11;17.23;;;9.13;;
14470;SDS011;7321;50.802;4.336;2022-12-29T18:53:43;17.03;;;9.53;;
14470;SDS011;7321;50.802;4.336;2022-12-29T18:56:09;10.40;;;3.93;;
14470;SDS011;7321;50.802;4.336;2022-12-29T18:58:35;9.33;;;4.70;;
14470;SDS011;7321;50.802;4.336;2022-12-29T19:01:02;11.50;;;4.77;;
14470;SDS011;7321;50.802;4.336;2022-12-29T19:03:31;10.63;;;3.00;;